sensor_id;sensor_type;location;lat;lon;timestamp;P1;durP1;ratioP1;P2;durP2;ratioP2
16403;SDS011;8311;50.158;8.642;2022-12-16T00:00:34;2.38;;;1.50;;
16403;SDS011;8311;50.158;8.642;2022-12-16T00:03:27;1.83;;;1.42;;
16403;SDS011;8311;50.158;8.642;2022-12-16T00:06:21;2.38;;;1.77;;
16403;SDS011;8311;50.158;8.642;2022-12-16T00:09:16;1.88;;;1.33;;
16403;SDS011;8311;50.158;8.642;2022-12-16T00:12:10;2.55;;;1.50;;
16403;SDS011;8311;50.158;8.642;2022-12-16T00:15:04;1.55;;;1.30;;
16403;SDS011;8311;50.158;8.642;2022-12-16T00:17:58;1.77;;;1.30;;
16403;SDS011;8311;50.158;8.642;2022-12-16T00:20:52;1.88;;;1.40;;
16403;SDS011;8311;50.158;8.642;2022-12-16T00:23:46;2.90;;;1.70;;
16403;SDS011;8311;50.158;8.642;2022-12-16T00:26:40;2.22;;;1.42;;
16403;SDS011;8311;50.158;8.642;2022-12-16T00:29:34;2.42;;;1.50;;
16403;SDS011;8311;50.158;8.642;2022-12-16T00:32:28;2.47;;;1.40;;
16403;SDS011;8311;50.158;8.642;2022-12-16T00:35:21;2.42;;;1.50;;
16403;SDS011;8311;50.158;8.642;2022-12-16T00:38:14;2.47;;;1.45;;
16403;SDS011;8311;50.158;8.642;2022-12-16T00:41:08;1.77;;;1.15;;
16403;SDS011;8311;50.158;8.642;2022-12-16T00:44:01;1.45;;;1.33;;
16403;SDS011;8311;50.158;8.642;2022-12-16T00:46:56;2.08;;;1.33;;
16403;SDS011;8311;50.158;8.642;2022-12-16T00:49:49;1.90;;;1.40;;
16403;SDS011;8311;50.158;8.642;2022-12-16T00:52:45;2.22;;;1.50;;
16403;SDS011;8311;50.158;8.642;2022-12-16T00:55:39;2.70;;;1.52;;
16403;SDS011;8311;50.158;8.642;2022-12-16T00:58:32;2.70;;;1.40;;
16403;SDS011;8311;50.158;8.642;2022-12-16T01:01:26;2.28;;;1.40;;
16403;SDS011;8311;50.158;8.642;2022-12-16T01:04:21;1.73;;;1.33;;
16403;SDS011;8311;50.158;8.642;2022-12-16T01:07:17;2.67;;;1.42;;
16403;SDS011;8311;50.158;8.642;2022-12-16T01:10:10;1.67;;;1.30;;
16403;SDS011;8311;50.158;8.642;2022-12-16T01:13:03;2.40;;;1.27;;
16403;SDS011;8311;50.158;8.642;2022-12-16T01:15:58;2.22;;;1.45;;
16403;SDS011;8311;50.158;8.642;2022-12-16T01:18:52;2.03;;;1.33;;
16403;SDS011;8311;50.158;8.642;2022-12-16T01:21:48;2.38;;;1.38;;
16403;SDS011;8311;50.158;8.642;2022-12-16T01:24:42;3.20;;;1.70;;
16403;SDS011;8311;50.158;8.642;2022-12-16T01:27:35;2.53;;;1.42;;
16403;SDS011;8311;50.158;8.642;2022-12-16T01:30:28;1.77;;;1.13;;
16403;SDS011;8311;50.158;8.642;2022-12-16T01:33:21;1.83;;;1.30;;
16403;SDS011;8311;50.158;8.642;2022-12-16T01:36:14;2.90;;;1.50;;
16403;SDS011;8311;50.158;8.642;2022-12-16T01:39:09;2.03;;;1.00;;
16403;SDS011;8311;50.158;8.642;2022-12-16T01:42:03;1.80;;;1.23;;
16403;SDS011;8311;50.158;8.642;2022-12-16T01:48:24;1.70;;;1.13;;
16403;SDS011;8311;50.158;8.642;2022-12-16T01:51:27;1.80;;;1.17;;
16403;SDS011;8311;50.158;8.642;2022-12-16T01:54:27;2.20;;;1.30;;
16403;SDS011;8311;50.158;8.642;2022-12-16T01:57:23;2.10;;;1.40;;
16403;SDS011;8311;50.158;8.642;2022-12-16T02:00:19;2.72;;;1.85;;
16403;SDS011;8311;50.158;8.642;2022-12-16T02:03:13;1.70;;;1.27;;
16403;SDS011;8311;50.158;8.642;2022-12-16T02:06:07;2.60;;;1.57;;
16403;SDS011;8311;50.158;8.642;2022-12-16T02:09:01;2.10;;;1.40;;
16403;SDS011;8311;50.158;8.642;2022-12-16T02:12:07;2.57;;;1.50;;
16403;SDS011;8311;50.158;8.642;2022-12-16T02:15:17;2.23;;;1.23;;
16403;SDS011;8311;50.158;8.642;2022-12-16T02:18:17;1.70;;;1.23;;
16403;SDS011;8311;50.158;8.642;2022-12-16T02:21:30;1.77;;;1.30;;
16403;SDS011;8311;50.158;8.642;2022-12-16T02:24:50;1.77;;;1.20;;
16403;SDS011;8311;50.158;8.642;2022-12-16T02:28:03;1.65;;;1.25;;
16403;SDS011;8311;50.158;8.642;2022-12-16T02:31:10;1.48;;;1.10;;
16403;SDS011;8311;50.158;8.642;2022-12-16T02:34:12;2.42;;;1.48;;
16403;SDS011;8311;50.158;8.642;2022-12-16T02:37:13;1.88;;;1.40;;
16403;SDS011;8311;50.158;8.642;2022-12-16T02:40:15;2.28;;;1.23;;
16403;SDS011;8311;50.158;8.642;2022-12-16T02:43:16;1.25;;;1.08;;
16403;SDS011;8311;50.158;8.642;2022-12-16T02:46:24;1.98;;;1.23;;
16403;SDS011;8311;50.158;8.642;2022-12-16T02:52:36;1.35;;;0.98;;
16403;SDS011;8311;50.158;8.642;2022-12-16T02:55:31;1.67;;;1.42;;
16403;SDS011;8311;50.158;8.642;2022-12-16T02:58:34;2.08;;;1.30;;
16403;SDS011;8311;50.158;8.642;2022-12-16T03:01:34;1.48;;;1.17;;
16403;SDS011;8311;50.158;8.642;2022-12-16T03:04:34;1.55;;;1.27;;
16403;SDS011;8311;50.158;8.642;2022-12-16T03:07:31;2.35;;;1.25;;
16403;SDS011;8311;50.158;8.642;2022-12-16T03:10:28;1.48;;;1.10;;
16403;SDS011;8311;50.158;8.642;2022-12-16T03:13:26;1.63;;;1.10;;
16403;SDS011;8311;50.158;8.642;2022-12-16T03:16:25;2.03;;;1.40;;
16403;SDS011;8311;50.158;8.642;2022-12-16T03:19:22;1.90;;;1.23;;
16403;SDS011;8311;50.158;8.642;2022-12-16T03:22:19;1.23;;;1.10;;
16403;SDS011;8311;50.158;8.642;2022-12-16T03:25:14;1.38;;;1.02;;
16403;SDS011;8311;50.158;8.642;2022-12-16T03:28:10;1.52;;;1.23;;
16403;SDS011;8311;50.158;8.642;2022-12-16T03:31:16;1.92;;;1.17;;
16403;SDS011;8311;50.158;8.642;2022-12-16T03:34:20;1.50;;;1.30;;
16403;SDS011;8311;50.158;8.642;2022-12-16T03:37:23;1.70;;;1.23;;
16403;SDS011;8311;50.158;8.642;2022-12-16T03:40:20;2.58;;;1.23;;
16403;SDS011;8311;50.158;8.642;2022-12-16T03:43:14;1.77;;;1.27;;
16403;SDS011;8311;50.158;8.642;2022-12-16T03:46:07;1.25;;;1.00;;
16403;SDS011;8311;50.158;8.642;2022-12-16T03:49:01;1.92;;;1.23;;
16403;SDS011;8311;50.158;8.642;2022-12-16T03:51:56;1.35;;;1.20;;
16403;SDS011;8311;50.158;8.642;2022-12-16T03:54:48;1.75;;;1.20;;
16403;SDS011;8311;50.158;8.642;2022-12-16T03:57:41;1.50;;;1.13;;
16403;SDS011;8311;50.158;8.642;2022-12-16T04:00:34;1.40;;;1.08;;
16403;SDS011;8311;50.158;8.642;2022-12-16T04:03:27;2.60;;;1.40;;
16403;SDS011;8311;50.158;8.642;2022-12-16T04:06:21;1.70;;;1.10;;
16403;SDS011;8311;50.158;8.642;2022-12-16T04:09:16;1.30;;;1.13;;
16403;SDS011;8311;50.158;8.642;2022-12-16T04:12:09;1.25;;;1.10;;
16403;SDS011;8311;50.158;8.642;2022-12-16T04:15:20;1.42;;;0.93;;
16403;SDS011;8311;50.158;8.642;2022-12-16T04:18:31;1.85;;;1.10;;
16403;SDS011;8311;50.158;8.642;2022-12-16T04:21:43;1.27;;;0.90;;
16403;SDS011;8311;50.158;8.642;2022-12-16T04:24:56;1.92;;;1.05;;
16403;SDS011;8311;50.158;8.642;2022-12-16T04:27:52;1.50;;;1.00;;
16403;SDS011;8311;50.158;8.642;2022-12-16T04:30:45;1.85;;;1.00;;
16403;SDS011;8311;50.158;8.642;2022-12-16T04:33:38;1.33;;;0.90;;
16403;SDS011;8311;50.158;8.642;2022-12-16T04:36:49;1.67;;;1.15;;
16403;SDS011;8311;50.158;8.642;2022-12-16T04:40:13;1.10;;;1.00;;
16403;SDS011;8311;50.158;8.642;2022-12-16T04:43:23;1.30;;;1.00;;
16403;SDS011;8311;50.158;8.642;2022-12-16T04:46:34;1.48;;;1.15;;
16403;SDS011;8311;50.158;8.642;2022-12-16T04:49:45;2.20;;;1.33;;
16403;SDS011;8311;50.158;8.642;2022-12-16T04:52:56;1.77;;;1.23;;
16403;SDS011;8311;50.158;8.642;2022-12-16T04:56:08;1.23;;;0.93;;
16403;SDS011;8311;50.158;8.642;2022-12-16T04:59:19;2.05;;;1.00;;
16403;SDS011;8311;50.158;8.642;2022-12-16T05:02:29;2.30;;;1.10;;
16403;SDS011;8311;50.158;8.642;2022-12-16T05:05:40;1.17;;;0.90;;
16403;SDS011;8311;50.158;8.642;2022-12-16T05:08:51;1.33;;;1.00;;
16403;SDS011;8311;50.158;8.642;2022-12-16T05:12:02;2.22;;;1.08;;
16403;SDS011;8311;50.158;8.642;2022-12-16T05:15:13;2.35;;;1.17;;
16403;SDS011;8311;50.158;8.642;2022-12-16T05:18:23;1.33;;;1.00;;
16403;SDS011;8311;50.158;8.642;2022-12-16T05:21:33;2.20;;;1.27;;
16403;SDS011;8311;50.158;8.642;2022-12-16T05:24:43;2.00;;;1.30;;
16403;SDS011;8311;50.158;8.642;2022-12-16T05:27:55;2.70;;;1.07;;
16403;SDS011;8311;50.158;8.642;2022-12-16T05:31:06;2.80;;;1.40;;
16403;SDS011;8311;50.158;8.642;2022-12-16T05:34:16;2.55;;;1.23;;
16403;SDS011;8311;50.158;8.642;2022-12-16T05:37:26;1.23;;;1.13;;
16403;SDS011;8311;50.158;8.642;2022-12-16T05:40:37;0.83;;;0.83;;
16403;SDS011;8311;50.158;8.642;2022-12-16T05:43:49;2.70;;;0.90;;
16403;SDS011;8311;50.158;8.642;2022-12-16T05:46:59;1.05;;;0.80;;
16403;SDS011;8311;50.158;8.642;2022-12-16T05:50:10;1.70;;;1.08;;
16403;SDS011;8311;50.158;8.642;2022-12-16T05:53:21;1.83;;;1.08;;
16403;SDS011;8311;50.158;8.642;2022-12-16T05:56:31;1.70;;;1.00;;
16403;SDS011;8311;50.158;8.642;2022-12-16T05:59:44;1.77;;;1.02;;
16403;SDS011;8311;50.158;8.642;2022-12-16T06:02:54;1.05;;;0.93;;
16403;SDS011;8311;50.158;8.642;2022-12-16T06:06:05;1.80;;;0.90;;
16403;SDS011;8311;50.158;8.642;2022-12-16T06:09:15;1.55;;;0.98;;
16403;SDS011;8311;50.158;8.642;2022-12-16T06:12:25;1.60;;;1.10;;
16403;SDS011;8311;50.158;8.642;2022-12-16T06:15:37;1.25;;;1.00;;
16403;SDS011;8311;50.158;8.642;2022-12-16T06:18:47;1.33;;;1.10;;
16403;SDS011;8311;50.158;8.642;2022-12-16T06:21:57;1.70;;;1.25;;
16403;SDS011;8311;50.158;8.642;2022-12-16T06:25:08;2.15;;;0.90;;
16403;SDS011;8311;50.158;8.642;2022-12-16T06:28:24;0.80;;;0.80;;
16403;SDS011;8311;50.158;8.642;2022-12-16T06:31:38;1.73;;;0.98;;
16403;SDS011;8311;50.158;8.642;2022-12-16T06:34:48;1.08;;;0.95;;
16403;SDS011;8311;50.158;8.642;2022-12-16T06:37:59;0.85;;;0.82;;
16403;SDS011;8311;50.158;8.642;2022-12-16T06:41:09;1.90;;;1.00;;
16403;SDS011;8311;50.158;8.642;2022-12-16T06:44:31;1.48;;;0.85;;
16403;SDS011;8311;50.158;8.642;2022-12-16T06:47:43;1.17;;;1.00;;
16403;SDS011;8311;50.158;8.642;2022-12-16T06:50:54;1.20;;;1.00;;
16403;SDS011;8311;50.158;8.642;2022-12-16T06:54:05;1.80;;;0.68;;
16403;SDS011;8311;50.158;8.642;2022-12-16T06:57:15;1.05;;;0.95;;
16403;SDS011;8311;50.158;8.642;2022-12-16T07:00:25;2.60;;;1.20;;
16403;SDS011;8311;50.158;8.642;2022-12-16T07:03:37;1.42;;;0.93;;
16403;SDS011;8311;50.158;8.642;2022-12-16T07:06:48;1.30;;;0.90;;
16403;SDS011;8311;50.158;8.642;2022-12-16T07:09:57;2.42;;;1.42;;
16403;SDS011;8311;50.158;8.642;2022-12-16T07:13:08;1.58;;;0.95;;
16403;SDS011;8311;50.158;8.642;2022-12-16T07:16:19;1.02;;;0.90;;
16403;SDS011;8311;50.158;8.642;2022-12-16T07:19:32;1.75;;;1.25;;
16403;SDS011;8311;50.158;8.642;2022-12-16T07:22:42;1.60;;;0.93;;
16403;SDS011;8311;50.158;8.642;2022-12-16T07:26:06;0.97;;;0.70;;
16403;SDS011;8311;50.158;8.642;2022-12-16T07:29:17;2.17;;;0.90;;
16403;SDS011;8311;50.158;8.642;2022-12-16T07:32:33;0.95;;;0.65;;
16403;SDS011;8311;50.158;8.642;2022-12-16T07:35:45;1.77;;;0.80;;
16403;SDS011;8311;50.158;8.642;2022-12-16T07:38:52;1.30;;;0.93;;
16403;SDS011;8311;50.158;8.642;2022-12-16T07:42:03;1.00;;;0.88;;
16403;SDS011;8311;50.158;8.642;2022-12-16T07:45:14;1.20;;;0.98;;
16403;SDS011;8311;50.158;8.642;2022-12-16T07:48:24;1.67;;;0.90;;
16403;SDS011;8311;50.158;8.642;2022-12-16T07:51:36;1.23;;;0.90;;
16403;SDS011;8311;50.158;8.642;2022-12-16T07:54:46;0.77;;;0.73;;
16403;SDS011;8311;50.158;8.642;2022-12-16T07:57:57;0.70;;;0.70;;
16403;SDS011;8311;50.158;8.642;2022-12-16T08:01:07;1.02;;;0.80;;
16403;SDS011;8311;50.158;8.642;2022-12-16T08:04:18;1.20;;;0.90;;
16403;SDS011;8311;50.158;8.642;2022-12-16T08:07:31;1.15;;;0.90;;
16403;SDS011;8311;50.158;8.642;2022-12-16T08:10:41;2.22;;;1.00;;
16403;SDS011;8311;50.158;8.642;2022-12-16T08:13:51;1.13;;;1.00;;
16403;SDS011;8311;50.158;8.642;2022-12-16T08:17:02;1.65;;;1.10;;
16403;SDS011;8311;50.158;8.642;2022-12-16T08:20:12;0.70;;;0.70;;
16403;SDS011;8311;50.158;8.642;2022-12-16T08:23:24;0.95;;;0.80;;
16403;SDS011;8311;50.158;8.642;2022-12-16T08:26:35;1.35;;;1.00;;
16403;SDS011;8311;50.158;8.642;2022-12-16T08:29:45;2.22;;;1.13;;
16403;SDS011;8311;50.158;8.642;2022-12-16T08:32:56;0.60;;;0.60;;
16403;SDS011;8311;50.158;8.642;2022-12-16T08:36:10;1.30;;;1.08;;
16403;SDS011;8311;50.158;8.642;2022-12-16T08:39:23;1.60;;;0.88;;
16403;SDS011;8311;50.158;8.642;2022-12-16T08:42:33;1.23;;;0.90;;
16403;SDS011;8311;50.158;8.642;2022-12-16T08:45:46;1.05;;;0.70;;
16403;SDS011;8311;50.158;8.642;2022-12-16T08:48:57;1.45;;;0.80;;
16403;SDS011;8311;50.158;8.642;2022-12-16T08:52:23;1.35;;;0.82;;
16403;SDS011;8311;50.158;8.642;2022-12-16T08:55:34;1.20;;;0.93;;
16403;SDS011;8311;50.158;8.642;2022-12-16T08:58:46;1.35;;;0.90;;
16403;SDS011;8311;50.158;8.642;2022-12-16T09:01:57;1.83;;;0.95;;
16403;SDS011;8311;50.158;8.642;2022-12-16T09:05:08;1.08;;;0.82;;
16403;SDS011;8311;50.158;8.642;2022-12-16T09:08:19;1.25;;;1.08;;
16403;SDS011;8311;50.158;8.642;2022-12-16T09:11:31;0.95;;;0.82;;
16403;SDS011;8311;50.158;8.642;2022-12-16T09:14:41;1.02;;;0.88;;
16403;SDS011;8311;50.158;8.642;2022-12-16T09:17:53;1.45;;;1.00;;
16403;SDS011;8311;50.158;8.642;2022-12-16T09:21:04;1.25;;;0.88;;
16403;SDS011;8311;50.158;8.642;2022-12-16T09:24:21;1.13;;;0.90;;
16403;SDS011;8311;50.158;8.642;2022-12-16T09:27:32;1.17;;;0.88;;
16403;SDS011;8311;50.158;8.642;2022-12-16T09:30:43;1.40;;;1.05;;
16403;SDS011;8311;50.158;8.642;2022-12-16T09:33:54;1.00;;;0.90;;
16403;SDS011;8311;50.158;8.642;2022-12-16T09:37:04;1.15;;;0.90;;
16403;SDS011;8311;50.158;8.642;2022-12-16T09:40:15;0.77;;;0.70;;
16403;SDS011;8311;50.158;8.642;2022-12-16T09:43:32;1.45;;;1.00;;
16403;SDS011;8311;50.158;8.642;2022-12-16T09:46:52;1.83;;;1.00;;
16403;SDS011;8311;50.158;8.642;2022-12-16T09:50:16;2.38;;;0.75;;
16403;SDS011;8311;50.158;8.642;2022-12-16T09:53:30;0.80;;;0.80;;
16403;SDS011;8311;50.158;8.642;2022-12-16T09:56:46;0.70;;;0.70;;
16403;SDS011;8311;50.158;8.642;2022-12-16T10:00:03;1.50;;;0.85;;
16403;SDS011;8311;50.158;8.642;2022-12-16T10:03:15;0.75;;;0.75;;
16403;SDS011;8311;50.158;8.642;2022-12-16T10:06:37;1.27;;;0.83;;
16403;SDS011;8311;50.158;8.642;2022-12-16T10:09:52;0.95;;;0.93;;
16403;SDS011;8311;50.158;8.642;2022-12-16T10:13:12;0.82;;;0.80;;
16403;SDS011;8311;50.158;8.642;2022-12-16T10:16:31;1.90;;;1.00;;
16403;SDS011;8311;50.158;8.642;2022-12-16T10:19:51;1.43;;;1.00;;
16403;SDS011;8311;50.158;8.642;2022-12-16T10:23:25;1.20;;;0.80;;
16403;SDS011;8311;50.158;8.642;2022-12-16T10:26:45;1.70;;;1.02;;
16403;SDS011;8311;50.158;8.642;2022-12-16T10:30:01;0.77;;;0.70;;
16403;SDS011;8311;50.158;8.642;2022-12-16T10:33:14;1.65;;;0.88;;
16403;SDS011;8311;50.158;8.642;2022-12-16T10:36:26;1.13;;;0.90;;
16403;SDS011;8311;50.158;8.642;2022-12-16T10:39:39;0.97;;;0.87;;
16403;SDS011;8311;50.158;8.642;2022-12-16T10:42:55;1.00;;;0.70;;
16403;SDS011;8311;50.158;8.642;2022-12-16T10:46:14;1.17;;;1.02;;
16403;SDS011;8311;50.158;8.642;2022-12-16T10:49:31;0.97;;;0.83;;
16403;SDS011;8311;50.158;8.642;2022-12-16T10:52:51;0.80;;;0.80;;
16403;SDS011;8311;50.158;8.642;2022-12-16T10:56:10;0.60;;;0.60;;
16403;SDS011;8311;50.158;8.642;2022-12-16T10:59:32;1.23;;;0.97;;
16403;SDS011;8311;50.158;8.642;2022-12-16T11:02:44;0.77;;;0.68;;
16403;SDS011;8311;50.158;8.642;2022-12-16T11:05:57;1.48;;;0.90;;
16403;SDS011;8311;50.158;8.642;2022-12-16T11:09:13;1.20;;;0.90;;
16403;SDS011;8311;50.158;8.642;2022-12-16T11:12:29;1.10;;;0.80;;
16403;SDS011;8311;50.158;8.642;2022-12-16T11:15:41;1.20;;;0.80;;
16403;SDS011;8311;50.158;8.642;2022-12-16T11:18:51;0.98;;;0.77;;
16403;SDS011;8311;50.158;8.642;2022-12-16T11:22:06;1.10;;;0.90;;
16403;SDS011;8311;50.158;8.642;2022-12-16T11:25:27;1.63;;;1.00;;
16403;SDS011;8311;50.158;8.642;2022-12-16T11:28:37;1.05;;;0.90;;
16403;SDS011;8311;50.158;8.642;2022-12-16T11:31:47;1.23;;;0.75;;
16403;SDS011;8311;50.158;8.642;2022-12-16T11:35:03;1.07;;;0.83;;
16403;SDS011;8311;50.158;8.642;2022-12-16T11:38:24;1.23;;;0.98;;
16403;SDS011;8311;50.158;8.642;2022-12-16T11:41:38;1.50;;;0.80;;
16403;SDS011;8311;50.158;8.642;2022-12-16T11:44:51;0.73;;;0.70;;
16403;SDS011;8311;50.158;8.642;2022-12-16T11:48:05;2.22;;;1.02;;
16403;SDS011;8311;50.158;8.642;2022-12-16T11:51:21;1.98;;;0.90;;
16403;SDS011;8311;50.158;8.642;2022-12-16T11:54:37;1.40;;;0.90;;
16403;SDS011;8311;50.158;8.642;2022-12-16T11:58:00;1.70;;;1.00;;
16403;SDS011;8311;50.158;8.642;2022-12-16T12:01:19;1.35;;;0.98;;
16403;SDS011;8311;50.158;8.642;2022-12-16T12:04:35;1.00;;;0.90;;
16403;SDS011;8311;50.158;8.642;2022-12-16T12:07:45;1.58;;;0.95;;
16403;SDS011;8311;50.158;8.642;2022-12-16T12:11:06;1.70;;;0.90;;
16403;SDS011;8311;50.158;8.642;2022-12-16T12:14:26;1.50;;;0.90;;
16403;SDS011;8311;50.158;8.642;2022-12-16T12:17:45;0.67;;;0.67;;
16403;SDS011;8311;50.158;8.642;2022-12-16T12:21:05;2.03;;;1.00;;
16403;SDS011;8311;50.158;8.642;2022-12-16T12:24:24;1.55;;;0.90;;
16403;SDS011;8311;50.158;8.642;2022-12-16T12:27:51;1.45;;;1.25;;
16403;SDS011;8311;50.158;8.642;2022-12-16T12:31:11;0.85;;;0.77;;
16403;SDS011;8311;50.158;8.642;2022-12-16T12:34:34;1.13;;;0.90;;
16403;SDS011;8311;50.158;8.642;2022-12-16T12:37:54;1.75;;;0.93;;
16403;SDS011;8311;50.158;8.642;2022-12-16T12:41:14;1.30;;;0.75;;
16403;SDS011;8311;50.158;8.642;2022-12-16T12:44:31;1.30;;;0.85;;
16403;SDS011;8311;50.158;8.642;2022-12-16T12:47:50;1.50;;;1.00;;
16403;SDS011;8311;50.158;8.642;2022-12-16T12:51:04;1.40;;;0.90;;
16403;SDS011;8311;50.158;8.642;2022-12-16T12:54:22;1.27;;;0.82;;
16403;SDS011;8311;50.158;8.642;2022-12-16T12:57:39;1.65;;;0.95;;
16403;SDS011;8311;50.158;8.642;2022-12-16T13:00:53;1.57;;;0.90;;
16403;SDS011;8311;50.158;8.642;2022-12-16T13:04:09;0.98;;;0.88;;
16403;SDS011;8311;50.158;8.642;2022-12-16T13:07:23;1.90;;;1.13;;
16403;SDS011;8311;50.158;8.642;2022-12-16T13:10:34;1.38;;;0.77;;
16403;SDS011;8311;50.158;8.642;2022-12-16T13:13:46;2.45;;;1.00;;
16403;SDS011;8311;50.158;8.642;2022-12-16T13:16:58;1.05;;;0.80;;
16403;SDS011;8311;50.158;8.642;2022-12-16T13:20:35;1.38;;;0.85;;
16403;SDS011;8311;50.158;8.642;2022-12-16T13:23:47;1.70;;;1.02;;
16403;SDS011;8311;50.158;8.642;2022-12-16T13:26:59;1.10;;;0.82;;
16403;SDS011;8311;50.158;8.642;2022-12-16T13:30:18;1.10;;;0.80;;
16403;SDS011;8311;50.158;8.642;2022-12-16T13:33:33;1.42;;;0.90;;
16403;SDS011;8311;50.158;8.642;2022-12-16T13:36:43;2.78;;;1.15;;
16403;SDS011;8311;50.158;8.642;2022-12-16T13:39:59;1.08;;;0.80;;
16403;SDS011;8311;50.158;8.642;2022-12-16T13:43:16;1.65;;;1.05;;
16403;SDS011;8311;50.158;8.642;2022-12-16T13:46:53;3.20;;;0.95;;
16403;SDS011;8311;50.158;8.642;2022-12-16T13:50:06;1.27;;;0.88;;
16403;SDS011;8311;50.158;8.642;2022-12-16T13:53:43;0.80;;;0.70;;
16403;SDS011;8311;50.158;8.642;2022-12-16T13:56:58;0.80;;;0.73;;
16403;SDS011;8311;50.158;8.642;2022-12-16T14:00:15;0.95;;;0.85;;
16403;SDS011;8311;50.158;8.642;2022-12-16T14:03:32;1.10;;;0.80;;
16403;SDS011;8311;50.158;8.642;2022-12-16T14:06:50;0.95;;;0.65;;
16403;SDS011;8311;50.158;8.642;2022-12-16T14:10:23;1.55;;;0.90;;
16403;SDS011;8311;50.158;8.642;2022-12-16T14:13:36;1.27;;;0.90;;
16403;SDS011;8311;50.158;8.642;2022-12-16T14:16:54;0.93;;;0.80;;
16403;SDS011;8311;50.158;8.642;2022-12-16T14:20:10;1.27;;;0.85;;
16403;SDS011;8311;50.158;8.642;2022-12-16T14:23:28;1.30;;;0.88;;
16403;SDS011;8311;50.158;8.642;2022-12-16T14:26:49;1.25;;;0.88;;
16403;SDS011;8311;50.158;8.642;2022-12-16T14:30:00;1.35;;;0.70;;
16403;SDS011;8311;50.158;8.642;2022-12-16T14:33:14;0.90;;;0.70;;
16403;SDS011;8311;50.158;8.642;2022-12-16T14:36:27;1.67;;;0.77;;
16403;SDS011;8311;50.158;8.642;2022-12-16T14:39:48;1.63;;;0.90;;
16403;SDS011;8311;50.158;8.642;2022-12-16T14:42:58;1.73;;;0.90;;
16403;SDS011;8311;50.158;8.642;2022-12-16T14:46:18;0.77;;;0.65;;
16403;SDS011;8311;50.158;8.642;2022-12-16T14:49:33;1.00;;;0.87;;
16403;SDS011;8311;50.158;8.642;2022-12-16T14:53:04;0.88;;;0.73;;
16403;SDS011;8311;50.158;8.642;2022-12-16T14:56:23;0.90;;;0.80;;
16403;SDS011;8311;50.158;8.642;2022-12-16T14:59:33;0.85;;;0.73;;
16403;SDS011;8311;50.158;8.642;2022-12-16T15:02:44;1.17;;;0.75;;
16403;SDS011;8311;50.158;8.642;2022-12-16T15:05:57;1.17;;;0.70;;
16403;SDS011;8311;50.158;8.642;2022-12-16T15:09:12;0.70;;;0.70;;
16403;SDS011;8311;50.158;8.642;2022-12-16T15:12:35;1.30;;;0.80;;
16403;SDS011;8311;50.158;8.642;2022-12-16T15:15:47;1.52;;;0.88;;
16403;SDS011;8311;50.158;8.642;2022-12-16T15:19:00;1.58;;;0.80;;
16403;SDS011;8311;50.158;8.642;2022-12-16T15:22:12;0.93;;;0.63;;
16403;SDS011;8311;50.158;8.642;2022-12-16T15:25:25;1.00;;;0.80;;
16403;SDS011;8311;50.158;8.642;2022-12-16T15:28:38;2.25;;;1.20;;
16403;SDS011;8311;50.158;8.642;2022-12-16T15:31:49;2.33;;;1.10;;
16403;SDS011;8311;50.158;8.642;2022-12-16T15:34:59;0.82;;;0.73;;
16403;SDS011;8311;50.158;8.642;2022-12-16T15:38:11;1.25;;;0.90;;
16403;SDS011;8311;50.158;8.642;2022-12-16T15:41:27;1.25;;;0.70;;
16403;SDS011;8311;50.158;8.642;2022-12-16T15:44:45;1.75;;;0.77;;
16403;SDS011;8311;50.158;8.642;2022-12-16T15:47:58;1.17;;;0.63;;
16403;SDS011;8311;50.158;8.642;2022-12-16T15:51:23;1.33;;;0.80;;
16403;SDS011;8311;50.158;8.642;2022-12-16T15:54:49;0.85;;;0.80;;
16403;SDS011;8311;50.158;8.642;2022-12-16T15:58:01;1.00;;;0.60;;
16403;SDS011;8311;50.158;8.642;2022-12-16T16:01:14;1.08;;;0.77;;
16403;SDS011;8311;50.158;8.642;2022-12-16T16:04:27;1.42;;;0.70;;
16403;SDS011;8311;50.158;8.642;2022-12-16T16:07:40;2.17;;;0.80;;
16403;SDS011;8311;50.158;8.642;2022-12-16T16:10:56;1.23;;;0.80;;
16403;SDS011;8311;50.158;8.642;2022-12-16T16:14:07;1.42;;;0.82;;
16403;SDS011;8311;50.158;8.642;2022-12-16T16:17:20;1.08;;;0.75;;
16403;SDS011;8311;50.158;8.642;2022-12-16T16:20:32;0.82;;;0.70;;
16403;SDS011;8311;50.158;8.642;2022-12-16T16:23:41;0.98;;;0.70;;
16403;SDS011;8311;50.158;8.642;2022-12-16T16:26:52;1.25;;;0.85;;
16403;SDS011;8311;50.158;8.642;2022-12-16T16:30:03;1.52;;;0.80;;
16403;SDS011;8311;50.158;8.642;2022-12-16T16:33:16;1.33;;;0.90;;
16403;SDS011;8311;50.158;8.642;2022-12-16T16:36:27;1.30;;;0.85;;
16403;SDS011;8311;50.158;8.642;2022-12-16T16:39:46;0.70;;;0.70;;
16403;SDS011;8311;50.158;8.642;2022-12-16T16:42:56;0.57;;;0.57;;
16403;SDS011;8311;50.158;8.642;2022-12-16T16:46:12;2.97;;;0.93;;
16403;SDS011;8311;50.158;8.642;2022-12-16T16:49:39;1.63;;;0.88;;
16403;SDS011;8311;50.158;8.642;2022-12-16T16:52:52;0.70;;;0.52;;
16403;SDS011;8311;50.158;8.642;2022-12-16T16:56:01;1.63;;;1.00;;
16403;SDS011;8311;50.158;8.642;2022-12-16T16:59:13;1.10;;;0.80;;
16403;SDS011;8311;50.158;8.642;2022-12-16T17:02:23;0.57;;;0.52;;
16403;SDS011;8311;50.158;8.642;2022-12-16T17:05:36;0.82;;;0.65;;
16403;SDS011;8311;50.158;8.642;2022-12-16T17:08:47;1.92;;;0.90;;
16403;SDS011;8311;50.158;8.642;2022-12-16T17:11:58;1.23;;;0.80;;
16403;SDS011;8311;50.158;8.642;2022-12-16T17:15:18;1.63;;;0.63;;
16403;SDS011;8311;50.158;8.642;2022-12-16T17:18:31;1.58;;;0.93;;
16403;SDS011;8311;50.158;8.642;2022-12-16T17:21:44;0.83;;;0.70;;
16403;SDS011;8311;50.158;8.642;2022-12-16T17:24:55;3.17;;;1.08;;
16403;SDS011;8311;50.158;8.642;2022-12-16T17:28:06;0.82;;;0.70;;
16403;SDS011;8311;50.158;8.642;2022-12-16T17:31:18;1.02;;;0.70;;
16403;SDS011;8311;50.158;8.642;2022-12-16T17:34:29;0.70;;;0.57;;
16403;SDS011;8311;50.158;8.642;2022-12-16T17:37:41;1.65;;;0.75;;
16403;SDS011;8311;50.158;8.642;2022-12-16T17:40:52;0.93;;;0.70;;
16403;SDS011;8311;50.158;8.642;2022-12-16T17:44:02;0.80;;;0.80;;
16403;SDS011;8311;50.158;8.642;2022-12-16T17:47:17;1.00;;;0.70;;
16403;SDS011;8311;50.158;8.642;2022-12-16T17:50:28;1.40;;;0.80;;
16403;SDS011;8311;50.158;8.642;2022-12-16T17:53:39;0.95;;;0.80;;
16403;SDS011;8311;50.158;8.642;2022-12-16T17:56:55;1.30;;;0.70;;
16403;SDS011;8311;50.158;8.642;2022-12-16T18:00:07;1.40;;;0.75;;
16403;SDS011;8311;50.158;8.642;2022-12-16T18:03:18;2.17;;;1.10;;
16403;SDS011;8311;50.158;8.642;2022-12-16T18:06:38;0.75;;;0.68;;
16403;SDS011;8311;50.158;8.642;2022-12-16T18:09:50;0.85;;;0.73;;
16403;SDS011;8311;50.158;8.642;2022-12-16T18:13:01;2.20;;;0.73;;
16403;SDS011;8311;50.158;8.642;2022-12-16T18:16:11;1.97;;;0.87;;
16403;SDS011;8311;50.158;8.642;2022-12-16T18:19:24;1.20;;;0.80;;
16403;SDS011;8311;50.158;8.642;2022-12-16T18:22:34;0.83;;;0.60;;
16403;SDS011;8311;50.158;8.642;2022-12-16T18:25:45;1.10;;;0.77;;
16403;SDS011;8311;50.158;8.642;2022-12-16T18:29:06;2.35;;;1.00;;
16403;SDS011;8311;50.158;8.642;2022-12-16T18:32:16;1.33;;;0.55;;
16403;SDS011;8311;50.158;8.642;2022-12-16T18:35:26;2.65;;;0.70;;
16403;SDS011;8311;50.158;8.642;2022-12-16T18:38:37;1.05;;;0.80;;
16403;SDS011;8311;50.158;8.642;2022-12-16T18:41:49;1.75;;;0.73;;
16403;SDS011;8311;50.158;8.642;2022-12-16T18:45:00;1.13;;;0.70;;
16403;SDS011;8311;50.158;8.642;2022-12-16T18:48:10;0.90;;;0.70;;
16403;SDS011;8311;50.158;8.642;2022-12-16T18:51:21;2.08;;;0.50;;
16403;SDS011;8311;50.158;8.642;2022-12-16T18:54:37;0.85;;;0.70;;
16403;SDS011;8311;50.158;8.642;2022-12-16T18:57:50;1.15;;;0.90;;
16403;SDS011;8311;50.158;8.642;2022-12-16T19:01:22;2.42;;;0.82;;
16403;SDS011;8311;50.158;8.642;2022-12-16T19:04:33;1.10;;;0.70;;
16403;SDS011;8311;50.158;8.642;2022-12-16T19:07:43;2.42;;;1.05;;
16403;SDS011;8311;50.158;8.642;2022-12-16T19:10:54;1.57;;;0.80;;
16403;SDS011;8311;50.158;8.642;2022-12-16T19:14:07;0.63;;;0.63;;
16403;SDS011;8311;50.158;8.642;2022-12-16T19:17:18;1.52;;;0.70;;
16403;SDS011;8311;50.158;8.642;2022-12-16T19:20:28;0.57;;;0.57;;
16403;SDS011;8311;50.158;8.642;2022-12-16T19:23:39;1.55;;;0.90;;
16403;SDS011;8311;50.158;8.642;2022-12-16T19:26:50;2.30;;;0.80;;